Thursday, October 23, 2014
00:03 UTC
  |  Log In   |  Register Free
Airport Search:

Newnan Coweta County Airport
(KCCO)

Newnan Coweta County Airport Diagram
No Airport Diagram Available

FAA data valid effective September 18, 2014 - November 13, 2014 (unless otherwise noted).

 
 
 
 
 
 
 
 
 
 
 
 
 
 

Current Aviation Weather for Newnan Coweta County Airport (KCCO)

The most recent METAR observation for KCCO was updated at: 2310
METAR Summary (Translated METAR)
KCCO
222255Z AUTO 35007KT 10SM CLR 18/08 A3008 RMK AO2 T01750080
KFFC
222253Z AUTO 29003KT 10SM CLR 17/07 A3008 RMK AO2 SLP187 T01670072
(10.3 nm NE from KCCO)
KLGC
222255Z AUTO 35003KT 10SM CLR 20/08 A3007 RMK AO2 T02000080
(23.7 nm SW from KCCO)
TAF
No TAF information found within 50 nm of KCCO
  Airport Weather Conditions for KCCO

 Current Weather at CCO
68° F
Fair
North winds at 8.1 mph
CCO NOAA Radar

Pressure: 30.06 in
Humidity: 44%
Wind: North at 8.1 MPH (7 KT)
Dew Point: 45.0°F
Visibility: 10.00 mi


Airport Weather Forecast for KCCO

Translated METAR and TAF for KCCO
Translated METAR for KCCO (2358 UTC 22 October 2014)
found at http://aviationweather.gov/adds/metars/
 
METAR text: KCCO 222355Z AUTO 35006KT 10SM CLR 15/08 A3009 RMK AO2 T01510080 10205 20150
Conditions at: KCCO (NEWNAN , GA, US) observed 2355 UTC 22 October 2014
Temperature: 15.1°C (59°F)
Dewpoint: 8.0°C (46°F) [RH = 63%]
Pressure (altimeter): 30.09 inches Hg (1019.0 mb)
Winds: from the N (350 degrees) at 7 MPH (6 knots; 3.1 m/s)
Visibility: 10 or more miles (16+ km)
Ceiling: at least 12,000 feet AGL
Clouds: sky clear below 12,000 feet AGL
Weather: automated observation with no human augmentation;
there may or may not be significant weather present at this time
Translated TAF for KCCO

There is no translated TAF available for this airport

Find All Airport Services Find A Hotel Find A Rental Car Find A Golf Course Find A Restaurant $100 Hamburger



FBO's on the Field
FBO Company Facility Photos Services Transportation Aviation Fuel Prices: Prices include tax
Catering Weather Repair Courtesy Rental Type 100LL JetA JetA+ MOGAS 8087
 
CCO Airport Services

This FBO has not yet been rated
FS:Shell
Last Updated: Oct-13
Login to update fuel prices
SS:
Contact CCO Airport ServicesMore FBO Information
 
Add another FBO Facility Photos Catering Weather Repair Courtesy Rental Type 100LL JetA JetA+ MOGAS 8087
Services Transportation Aviation Fuel Prices: Prices include tax


model-print
model-print
model-print
model-print